METAR Data
IDs: Format: Raw Decoded Include TAF

Data at: 1329 UTC 07 Jul 2020

KMVY 071253Z 13005KT 10SM BKN006 17/14 A3020 RMK AO2 SLP228 T01670144 $
KMVY 071153Z 13007KT 10SM OVC005 17/15 A3020 RMK AO2 SLP225 T01670150 10167 20150 51008 $
KMVY 071053Z 11007KT 10SM OVC004 15/14 A3019 RMK AO2 SLP224 T01500144 $
KMVY 070953Z 13003KT 10SM OVC004 15/14 A3019 RMK AO2 SLP222 T01500144 $
KMVY 070927Z AUTO 12005KT 10SM OVC004 15/14 A3018 RMK AO2 T01500144 $
KMVY 070853Z AUTO 14006KT 10SM OVC005 16/14 A3017 RMK AO2 SLP216 T01560144 53003 $
KMVY 070753Z AUTO 16005KT 10SM OVC006 16/15 A3017 RMK AO2 SLP215 T01610150 $
KMVY 070653Z AUTO 15006KT 10SM BKN007 16/15 A3015 RMK AO2 SLP209 T01610150 $
KMVY 070553Z AUTO 14004KT 10SM OVC007 17/16 A3017 RMK AO2 SLP214 T01670156 10194 20156 50007 $
KMVY 070453Z AUTO 16005KT 10SM BKN008 OVC070 17/16 A3017 RMK AO2 SLP216 T01670156 402440156 $
KMVY 070444Z AUTO 16004KT 10SM FEW008 OVC070 17/16 A3018 RMK AO2 T01670156 $
KMVY 070412Z AUTO 14004KT 10SM BKN009 BKN075 16/15 A3017 RMK AO2 T01610150 $
KMVY 070353Z AUTO 16004KT 10SM FEW009 FEW070 16/15 A3016 RMK AO2 SLP212 T01610150 $
KMVY 070337Z AUTO 14003KT 10SM FEW009 FEW080 17/16 A3016 RMK AO2 T01670156 $
KMVY 070253Z AUTO 12004KT 10SM SCT070 17/16 A3015 RMK AO2 SLP208 T01670156 50011 $
KMVY 070153Z 07006KT 10SM SCT070 17/16 A3015 RMK AO2 SLP208 T01720156 $
KMVY 070053Z 12004KT 10SM FEW070 18/16 A3014 RMK AO2 SLP206 T01780161 $
KMVY 062353Z 10006KT 10SM CLR 19/17 A3011 RMK AO2 SLP196 T01940172 10244 20194 51007 $
KMVY 062253Z 05010KT 10SM CLR 21/18 A3010 RMK AO2 SLP192 T02110178 $
KMVY 062153Z 05010KT 10SM CLR 22/17 A3011 RMK AO2 SLP194 T02220172 $
KMVY 062053Z 06013KT 10SM CLR 23/18 A3009 RMK AO2 SLP189 T02330178 51003 $
KMVY 062017Z 05011KT 10SM SCT019 23/18 A3009 RMK AO2 T02330178 $
KMVY 061953Z 05014KT 10SM BKN019 24/18 A3009 RMK AO2 SLP187 T02440183 $
KMVY 061853Z 10SM OVC019 23/18 A3009 RMK AO2 SLP189 T02280183 $
KMVY 061753Z 10SM OVC015 23/18 A3008 RMK AO2 SLP186 T02280183 10244 20206 53010 $
KMVY 061653Z 10SM BKN015 24/19 A3007 RMK AO2 SLP181 T02390189 $
KMVY 061619Z 10SM SCT014 23/19 A3007 RMK AO2 T02330189 $
KMVY 061553Z 10SM BKN012 24/19 A3007 RMK AO2 SLP181 T02390189 $
KMVY 061523Z 10SM OVC006 22/18 A3006 RMK AO2 T02170183 $
KMVY 061453Z OVC006 21/18 A3006 RMK AO2 SLP176 T02110183 53013 $
KMVY 061424Z OVC006 22/19 A3004 RMK AO2 T02170189 $
KMVY 061353Z FEW007 BKN012 22/19 A3003 RMK AO2 SLP168 T02220194 $
KMVY 061253Z 8SM BKN006 BKN014 22/22 A3002 RMK AO2 SLP164 T02220217 $
KMVY 061236Z 01006KT 8SM BKN006 OVC012 22/21 A3002 RMK AO2 CIG 004V008 T02220211
KMVY 061210Z 00000KT 5SM BR OVC004 21/21 A3002 RMK AO2 CIG 002V006 T02110211
KMVY 061202Z 32003KT 2 1/2SM BR BKN004 OVC010 21/21 A3001 RMK AO2 T02110211
KMVY 061153Z 33004KT 1 1/2SM R24/5500VP6000FT BR BKN002 OVC008 21/21 A3001 RMK AO2 SLP160 T02110206 10211 20194 53015
KMVY 061139Z 34003KT 1/2SM R24/3000V4500FT FG VV002 21/21 A3000 RMK AO2 T02060206
KMVY 061121Z 00000KT 1/4SM R24/2200V2400FT FG VV002 20/20 A3000 RMK AO2 T02000200
KMVY 061110Z 21003KT 1/4SM R24/2000V2200FT FG VV002 20/20 A3000 RMK AO2 T02000200
KMVY 061053Z 21003KT 1/4SM R24/2200V2400FT FG VV002 20/20 A2999 RMK AO2 SLP155 T02000200
KMVY 060953Z 19005KT 1/4SM R24/2600V2800FT FG VV002 19/19 A2997 RMK AO2 SLP148 T01940194
KMVY 060923Z AUTO 19004KT 1/4SM R24/3000V4500FT FG VV002 19/19 A2997 RMK AO2 T01940194
KMVY 060853Z AUTO 19006KT 3/4SM R24/4000V4500FT BR VV002 19/19 A2996 RMK AO2 SLP145 T01940194 55001
KMVY 060753Z AUTO 18004KT 1/2SM R24/2400V3000FT FG VV002 20/19 A2996 RMK AO2 SLP144 T02000194
KMVY 060744Z AUTO 18004KT 1/2SM R24/2400V3000FT FG VV002 20/19 A2996 RMK AO2 T02000194
KMVY 060716Z AUTO 18004KT 1/4SM R24/2200V2400FT FG VV002 20/20 A2996 RMK AO2 T02000200
KMVY 060653Z AUTO 19003KT 1/2SM R24/3000V5000FT FG VV002 20/20 A2997 RMK AO2 SLP147 T02000200
KMVY 060648Z AUTO 19003KT 1/2SM R24/3500VP6000FT FG VV002 20/20 A2997 RMK AO2 LTG DSNT E
KMVY 060638Z AUTO 20004KT 1SM R24/P6000FT BR VV002 20/20 A2997 RMK AO2 LTG DSNT E T02000200
KMVY 060610Z AUTO 17006KT 3/4SM R24/4000V5500FT BR OVC002 20/20 A2997 RMK AO2 LTG DSNT NE T02000200
KMVY 060553Z AUTO 13003KT 1SM R24/4500VP6000FT BR OVC002 20/20 A2998 RMK AO2 LTG DSNT NE AND E SLP151 T02000200 10200 20194 53002
KMVY 060520Z AUTO 36008KT 1/2SM R24/1800V4000FT FG VV002 20/19 A3000 RMK AO2 LTG DSNT N-E PRESRR T02000194
KMVY 060453Z AUTO 22009KT 1/4SM R24/1600V1800FT FG VV002 20/19 A2996 RMK AO2 LTG DSNT NW-NE SLP144 T02000194 402280167
KMVY 060407Z AUTO 21009KT 1/4SM R24/1800V2200FT FG VV002 19/19 A2996 RMK AO2 T01940194
KMVY 060353Z AUTO 21011KT 1/4SM R24/2000V2600FT FG VV002 19/19 A2996 RMK AO2 SLP144 T01940194
KMVY 060253Z AUTO 20008KT 3/4SM R24/5000V6000FT BR OVC002 19/19 A2998 RMK AO2 SLP151 T01940194 51008
KMVY 060153Z 20009KT 1 1/4SM BR OVC002 19/19 A2997 RMK AO2 SLP150 T01940194